Time,TemperatureF,DewpointF,PressureIn,WindDirection,WindDirectionDegrees,WindSpeedMPH,WindSpeedGustMPH,Humidity,HourlyPrecipIn,Conditions,Clouds,dailyrainin,SoftwareType,DateUTC
2013-04-05 00:00:00,39.4,20.8,29.74,WSW,251,5.8,5.8,47,0.00,,,0.00,VWS V14.01,2013-04-05 04:00:00,
2013-04-05 00:05:00,39.2,21.2,29.74,West,266,4.0,4.0,48,0.00,,,0.00,VWS V14.01,2013-04-05 04:05:00,
2013-04-05 00:10:00,39.2,21.2,29.74,WSW,254,3.1,3.1,48,0.00,,,0.00,VWS V14.01,2013-04-05 04:10:00,
2013-04-05 00:15:00,39.2,21.2,29.74,WSW,252,8.7,8.7,48,0.00,,,0.00,VWS V14.01,2013-04-05 04:15:00,
2013-04-05 00:20:00,39.0,22.0,29.74,SW,225,2.2,2.2,50,0.00,,,0.00,VWS V14.01,2013-04-05 04:20:00,
2013-04-05 00:25:00,38.8,21.8,29.74,SSW,200,0.0,4.9,50,0.00,,,0.00,VWS V14.01,2013-04-05 04:25:00,
2013-04-05 00:30:00,38.8,21.8,29.74,SSW,200,3.1,3.1,50,0.00,,,0.00,VWS V14.01,2013-04-05 04:30:00,
2013-04-05 00:35:00,38.7,21.6,29.74,West,262,2.2,2.2,50,0.00,,,0.00,VWS V14.01,2013-04-05 04:35:00,
2013-04-05 00:40:00,38.7,21.6,29.74,WSW,252,2.7,4.0,50,0.00,,,0.00,VWS V14.01,2013-04-05 04:40:00,
2013-04-05 00:45:00,38.7,22.1,29.74,WSW,252,2.7,2.7,51,0.00,,,0.00,VWS V14.01,2013-04-05 04:45:00,
2013-04-05 00:50:00,38.7,22.1,29.74,WSW,256,0.0,0.0,51,0.00,,,0.00,VWS V14.01,2013-04-05 04:50:00,
2013-04-05 00:55:00,38.5,22.4,29.71,WSW,254,3.6,3.6,52,0.00,,,0.00,VWS V14.01,2013-04-05 04:55:00,
2013-04-05 01:00:00,38.5,22.4,29.71,WNW,294,3.1,3.1,52,0.00,,,0.00,VWS V14.01,2013-04-05 05:00:00,
2013-04-05 01:05:00,38.5,22.4,29.71,WSW,237,4.9,4.9,52,0.00,,,0.00,VWS V14.01,2013-04-05 05:05:00,
2013-04-05 01:10:00,38.5,22.9,29.71,West,272,4.0,4.0,53,0.00,,,0.00,VWS V14.01,2013-04-05 05:10:00,
2013-04-05 01:15:00,38.5,22.9,29.71,SW,225,0.0,0.0,53,0.00,,,0.00,VWS V14.01,2013-04-05 05:15:00,
2013-04-05 01:20:00,38.3,22.7,29.71,WSW,251,0.0,0.0,53,0.00,,,0.00,VWS V14.01,2013-04-05 05:20:00,
2013-04-05 01:25:00,38.3,22.7,29.71,SW,235,0.0,0.0,53,0.00,,,0.00,VWS V14.01,2013-04-05 05:25:00,
2013-04-05 01:30:00,38.3,22.7,29.71,WSW,248,2.2,2.2,53,0.00,,,0.00,VWS V14.01,2013-04-05 05:30:00,
2013-04-05 01:35:00,38.3,23.1,29.71,SW,226,0.0,0.0,54,0.00,,,0.00,VWS V14.01,2013-04-05 05:35:00,
2013-04-05 01:40:00,38.3,23.1,29.71,SW,226,0.0,0.0,54,0.00,,,0.00,VWS V14.01,2013-04-05 05:40:00,
2013-04-05 01:45:00,38.1,23.4,29.71,West,275,3.1,3.1,55,0.00,,,0.00,VWS V14.01,2013-04-05 05:45:00,
2013-04-05 01:50:00,38.1,23.4,29.71,West,264,2.7,2.7,55,0.00,,,0.00,VWS V14.01,2013-04-05 05:50:00,
2013-04-05 01:55:00,38.1,23.8,29.71,SW,222,0.0,0.0,56,0.00,,,0.00,VWS V14.01,2013-04-05 05:55:00,
2013-04-05 02:00:00,38.1,23.8,29.71,SW,219,0.0,2.7,56,0.00,,,0.00,VWS V14.01,2013-04-05 06:00:00,
2013-04-05 02:05:00,38.1,23.8,29.71,WSW,242,0.0,0.0,56,0.00,,,0.00,VWS V14.01,2013-04-05 06:05:00,
2013-04-05 02:10:00,38.1,23.8,29.68,WSW,256,2.2,3.6,56,0.00,,,0.00,VWS V14.01,2013-04-05 06:10:00,
2013-04-05 02:15:00,38.1,23.8,29.68,SW,219,0.0,0.0,56,0.00,,,0.00,VWS V14.01,2013-04-05 06:15:00,
2013-04-05 02:20:00,38.1,23.8,29.68,WNW,284,3.6,3.6,56,0.00,,,0.00,VWS V14.01,2013-04-05 06:20:00,
2013-04-05 02:25:00,38.1,23.4,29.68,WSW,237,0.0,0.0,55,0.00,,,0.00,VWS V14.01,2013-04-05 06:25:00,
2013-04-05 02:30:00,38.1,23.4,29.68,WSW,238,3.6,3.6,55,0.00,,,0.00,VWS V14.01,2013-04-05 06:30:00,
2013-04-05 02:35:00,38.1,23.4,29.68,SW,225,3.6,3.6,55,0.00,,,0.00,VWS V14.01,2013-04-05 06:35:00,
2013-04-05 02:40:00,38.1,23.0,29.68,West,273,0.0,0.0,54,0.00,,,0.00,VWS V14.01,2013-04-05 06:40:00,
2013-04-05 02:45:00,38.1,23.0,29.68,WNW,285,0.0,0.0,54,0.00,,,0.00,VWS V14.01,2013-04-05 06:45:00,
2013-04-05 02:50:00,38.1,23.0,29.68,West,272,0.0,0.0,54,0.00,,,0.00,VWS V14.01,2013-04-05 06:50:00,
2013-04-05 02:55:00,37.9,22.8,29.68,SW,230,5.8,5.8,54,0.00,,,0.00,VWS V14.01,2013-04-05 06:55:00,
2013-04-05 03:00:00,38.1,23.0,29.68,WSW,244,0.0,0.0,54,0.00,,,0.00,VWS V14.01,2013-04-05 07:00:00,
2013-04-05 03:05:00,38.1,23.0,29.68,WSW,243,0.0,2.2,54,0.00,,,0.00,VWS V14.01,2013-04-05 07:05:00,
2013-04-05 03:10:00,37.9,22.8,29.68,SSE,155,2.2,2.2,54,0.00,,,0.00,VWS V14.01,2013-04-05 07:10:00,
2013-04-05 03:15:00,37.9,22.8,29.68,SSW,205,0.0,0.0,54,0.00,,,0.00,VWS V14.01,2013-04-05 07:15:00,
2013-04-05 03:20:00,37.9,22.8,29.68,SSW,211,0.0,5.4,54,0.00,,,0.00,VWS V14.01,2013-04-05 07:20:00,
2013-04-05 03:25:00,37.9,22.8,29.65,SW,219,3.1,3.1,54,0.00,,,0.00,VWS V14.01,2013-04-05 07:25:00,
2013-04-05 03:30:00,37.9,22.8,29.65,WSW,251,3.1,3.1,54,0.00,,,0.00,VWS V14.01,2013-04-05 07:30:00,
2013-04-05 03:36:00,37.9,22.8,29.65,SW,226,5.4,5.4,54,0.00,,,0.00,VWS V14.01,2013-04-05 07:36:00,
2013-04-05 03:41:00,37.9,22.8,29.65,WSW,249,0.0,0.0,54,0.00,,,0.00,VWS V14.01,2013-04-05 07:41:00,
2013-04-05 03:46:00,37.8,22.6,29.65,WSW,258,0.0,0.0,54,0.00,,,0.00,VWS V14.01,2013-04-05 07:46:00,
2013-04-05 03:51:00,37.6,22.9,29.65,WSW,240,4.9,4.9,55,0.00,,,0.00,VWS V14.01,2013-04-05 07:51:00,
2013-04-05 03:56:00,37.6,22.9,29.65,WSW,253,3.1,4.9,55,0.00,,,0.00,VWS V14.01,2013-04-05 07:56:00,
2013-04-05 04:01:00,37.6,22.9,29.65,WSW,247,0.0,2.2,55,0.00,,,0.00,VWS V14.01,2013-04-05 08:01:00,
2013-04-05 04:06:00,37.6,22.9,29.65,WSW,254,0.0,2.7,55,0.00,,,0.00,VWS V14.01,2013-04-05 08:06:00,
2013-04-05 04:11:00,37.8,22.6,29.65,WSW,243,0.0,0.0,54,0.00,,,0.00,VWS V14.01,2013-04-05 08:11:00,
2013-04-05 04:16:00,37.8,22.6,29.65,SW,234,7.2,7.2,54,0.00,,,0.00,VWS V14.01,2013-04-05 08:16:00,
2013-04-05 04:21:00,37.8,22.6,29.65,WSW,252,0.0,0.0,54,0.00,,,0.00,VWS V14.01,2013-04-05 08:21:00,
2013-04-05 04:26:00,37.9,22.8,29.65,WSW,241,2.7,2.7,54,0.00,,,0.00,VWS V14.01,2013-04-05 08:26:00,
2013-04-05 04:30:00,37.9,22.8,29.65,WSW,242,0.0,2.2,54,0.00,,,0.00,VWS V14.01,2013-04-05 08:30:00,
2013-04-05 04:35:00,37.9,22.8,29.65,WNW,286,7.2,7.2,54,0.00,,,0.00,VWS V14.01,2013-04-05 08:35:00,
2013-04-05 04:40:00,37.9,22.8,29.62,West,276,2.7,2.7,54,0.00,,,0.00,VWS V14.01,2013-04-05 08:40:00,
2013-04-05 04:45:00,37.9,22.4,29.62,WNW,285,0.0,0.0,53,0.00,,,0.00,VWS V14.01,2013-04-05 08:45:00,
2013-04-05 04:50:00,37.9,22.4,29.62,SW,224,2.2,2.2,53,0.00,,,0.00,VWS V14.01,2013-04-05 08:50:00,
2013-04-05 04:55:00,37.9,22.4,29.62,West,260,3.6,3.6,53,0.00,,,0.00,VWS V14.01,2013-04-05 08:55:00,
2013-04-05 05:00:00,38.1,22.5,29.62,WSW,247,6.3,6.3,53,0.00,,,0.00,VWS V14.01,2013-04-05 09:00:00,
2013-04-05 05:05:00,38.3,22.2,29.62,WSW,252,2.2,5.4,52,0.00,,,0.00,VWS V14.01,2013-04-05 09:05:00,
2013-04-05 05:10:00,38.5,22.4,29.62,SSW,207,4.0,4.0,52,0.00,,,0.00,VWS V14.01,2013-04-05 09:10:00,
2013-04-05 05:15:00,38.5,21.9,29.62,WSW,248,6.3,6.3,51,0.00,,,0.00,VWS V14.01,2013-04-05 09:15:00,
2013-04-05 05:20:00,38.5,21.9,29.62,WSW,245,4.0,4.0,51,0.00,,,0.00,VWS V14.01,2013-04-05 09:20:00,
2013-04-05 05:25:00,38.5,21.9,29.62,WSW,243,3.1,3.1,51,0.00,,,0.00,VWS V14.01,2013-04-05 09:25:00,
2013-04-05 05:30:00,38.5,21.9,29.62,West,267,0.0,0.0,51,0.00,,,0.00,VWS V14.01,2013-04-05 09:30:00,
2013-04-05 05:35:00,38.5,21.9,29.62,West,280,0.0,0.0,51,0.00,,,0.00,VWS V14.01,2013-04-05 09:35:00,
2013-04-05 05:40:00,38.5,21.9,29.62,SSW,212,4.0,4.0,51,0.00,,,0.00,VWS V14.01,2013-04-05 09:40:00,
2013-04-05 05:45:00,38.5,21.9,29.62,SSW,195,2.2,2.2,51,0.00,,,0.00,VWS V14.01,2013-04-05 09:45:00,
2013-04-05 05:50:00,38.5,21.9,29.62,West,264,3.1,3.1,51,0.00,,,0.00,VWS V14.01,2013-04-05 09:50:00,
2013-04-05 05:55:00,38.5,21.9,29.62,West,264,3.1,3.1,51,0.00,,,0.00,VWS V14.01,2013-04-05 09:55:00,
2013-04-05 06:00:00,38.5,21.9,29.62,WSW,247,0.0,0.0,51,0.00,,,0.00,VWS V14.01,2013-04-05 10:00:00,
2013-04-05 06:05:00,38.5,21.9,29.62,WNW,286,3.1,3.1,51,0.00,,,0.00,VWS V14.01,2013-04-05 10:05:00,
2013-04-05 06:10:00,38.5,21.9,29.62,SW,235,0.0,0.0,51,0.00,,,0.00,VWS V14.01,2013-04-05 10:10:00,
2013-04-05 06:15:00,38.5,21.9,29.62,SW,228,2.7,2.7,51,0.00,,,0.00,VWS V14.01,2013-04-05 10:15:00,
2013-04-05 06:20:00,38.5,21.9,29.62,WSW,243,2.7,2.7,51,0.00,,,0.00,VWS V14.01,2013-04-05 10:20:00,
2013-04-05 06:25:00,38.5,22.4,29.59,WSW,243,2.7,2.7,52,0.00,,,0.00,VWS V14.01,2013-04-05 10:25:00,
2013-04-05 06:31:00,38.5,22.4,29.59,WNW,293,4.9,4.9,52,0.00,,,0.00,VWS V14.01,2013-04-05 10:31:00,
2013-04-05 06:36:00,38.5,22.4,29.59,WNW,293,4.9,4.9,52,0.00,,,0.00,VWS V14.01,2013-04-05 10:36:00,
2013-04-05 06:41:00,38.7,23.0,29.59,WSW,243,4.0,4.0,53,0.00,,,0.00,VWS V14.01,2013-04-05 10:41:00,
2013-04-05 06:46:00,38.7,23.0,29.59,West,271,3.6,3.6,53,0.00,,,0.00,VWS V14.01,2013-04-05 10:46:00,
2013-04-05 06:51:00,38.7,23.0,29.59,West,261,2.7,3.6,53,0.00,,,0.00,VWS V14.01,2013-04-05 10:51:00,
2013-04-05 06:56:00,38.7,23.0,29.62,WSW,254,0.0,0.0,53,0.00,,,0.00,VWS V14.01,2013-04-05 10:56:00,
2013-04-05 07:01:00,38.8,23.2,29.62,WSW,251,4.0,4.0,53,0.00,,,0.00,VWS V14.01,2013-04-05 11:01:00,
2013-04-05 07:06:00,38.8,23.2,29.62,WSW,257,7.6,7.6,53,0.00,,,0.00,VWS V14.01,2013-04-05 11:06:00,
2013-04-05 07:11:00,38.8,23.6,29.62,WSW,252,0.0,0.0,54,0.00,,,0.00,VWS V14.01,2013-04-05 11:11:00,
2013-04-05 07:16:00,38.8,23.6,29.62,WSW,248,6.3,6.3,54,0.00,,,0.00,VWS V14.01,2013-04-05 11:16:00,
2013-04-05 07:20:00,38.8,23.6,29.62,SW,231,0.0,4.0,54,0.00,,,0.00,VWS V14.01,2013-04-05 11:20:00,
2013-04-05 07:25:00,38.8,23.6,29.59,WNW,293,3.1,3.1,54,0.00,,,0.00,VWS V14.01,2013-04-05 11:25:00,
2013-04-05 07:30:00,39.2,24.4,29.59,West,278,0.0,0.0,55,0.00,,,0.00,VWS V14.01,2013-04-05 11:30:00,
2013-04-05 07:35:00,39.2,24.4,29.59,WNW,290,0.0,0.0,55,0.00,,,0.00,VWS V14.01,2013-04-05 11:35:00,
2013-04-05 07:40:00,39.4,24.6,29.59,WSW,253,0.0,0.0,55,0.00,,,0.00,VWS V14.01,2013-04-05 11:40:00,
2013-04-05 07:45:00,39.4,24.6,29.59,West,270,0.0,0.0,55,0.00,,,0.00,VWS V14.01,2013-04-05 11:45:00,
2013-04-05 07:50:00,39.4,24.6,29.59,West,269,0.0,0.0,55,0.00,,,0.00,VWS V14.01,2013-04-05 11:50:00,
2013-04-05 07:55:00,39.4,24.6,29.59,West,269,0.0,0.0,55,0.00,,,0.00,VWS V14.01,2013-04-05 11:55:00,
2013-04-05 08:00:00,39.9,24.6,29.59,WNW,288,0.0,0.0,54,0.00,,,0.00,VWS V14.01,2013-04-05 12:00:00,
2013-04-05 08:05:00,39.9,24.6,29.59,West,261,5.8,5.8,54,0.00,,,0.00,VWS V14.01,2013-04-05 12:05:00,
2013-04-05 08:10:00,39.9,24.6,29.59,WSW,247,0.0,0.0,54,0.00,,,0.00,VWS V14.01,2013-04-05 12:10:00,
2013-04-05 08:15:00,39.9,24.6,29.59,WSW,246,2.2,2.2,54,0.00,,,0.00,VWS V14.01,2013-04-05 12:15:00,
2013-04-05 08:20:00,40.3,24.5,29.59,West,279,3.1,3.6,53,0.00,,,0.00,VWS V14.01,2013-04-05 12:20:00,
2013-04-05 08:25:00,40.5,24.7,29.59,South,182,3.1,3.1,53,0.00,,,0.00,VWS V14.01,2013-04-05 12:25:00,
2013-04-05 08:30:00,40.5,24.7,29.56,WSW,248,0.0,0.0,53,0.00,,,0.00,VWS V14.01,2013-04-05 12:30:00,
2013-04-05 08:35:00,40.5,24.7,29.56,WSW,249,0.0,0.0,53,0.00,,,0.00,VWS V14.01,2013-04-05 12:35:00,
2013-04-05 08:40:00,40.8,25.0,29.56,SW,227,4.0,4.0,53,0.00,,,0.00,VWS V14.01,2013-04-05 12:40:00,
2013-04-05 08:45:00,41.0,24.7,29.56,SW,224,2.7,2.7,52,0.00,,,0.00,VWS V14.01,2013-04-05 12:45:00,
2013-04-05 08:50:00,41.4,24.6,29.56,South,177,3.1,3.1,51,0.00,,,0.00,VWS V14.01,2013-04-05 12:50:00,
2013-04-05 08:55:00,41.4,24.1,29.56,West,260,3.1,3.1,50,0.00,,,0.00,VWS V14.01,2013-04-05 12:55:00,
2013-04-05 09:00:00,41.4,24.1,29.56,West,262,0.0,0.0,50,0.00,,,0.00,VWS V14.01,2013-04-05 13:00:00,
2013-04-05 09:05:00,41.5,24.3,29.56,West,259,0.0,0.0,50,0.00,,,0.00,VWS V14.01,2013-04-05 13:05:00,
2013-04-05 09:10:00,41.7,24.5,29.56,WSW,241,2.2,2.2,50,0.00,,,0.00,VWS V14.01,2013-04-05 13:10:00,
2013-04-05 09:15:00,41.7,24.5,29.56,SW,229,0.0,0.0,50,0.00,,,0.00,VWS V14.01,2013-04-05 13:15:00,
2013-04-05 09:20:00,42.1,24.3,29.56,SW,234,0.0,0.0,49,0.00,,,0.00,VWS V14.01,2013-04-05 13:20:00,
2013-04-05 09:25:00,42.1,24.3,29.56,West,263,0.0,0.0,49,0.00,,,0.00,VWS V14.01,2013-04-05 13:25:00,
2013-04-05 09:30:00,42.6,24.3,29.56,SW,235,0.0,0.0,48,0.00,,,0.00,VWS V14.01,2013-04-05 13:30:00,
2013-04-05 09:35:00,42.8,24.5,29.56,SW,216,0.0,0.0,48,0.00,,,0.00,VWS V14.01,2013-04-05 13:35:00,
2013-04-05 09:40:00,42.8,24.5,29.56,SW,232,3.1,3.1,48,0.00,,,0.00,VWS V14.01,2013-04-05 13:40:00,
2013-04-05 09:45:00,43.0,23.6,29.56,SW,232,2.7,3.1,46,0.00,,,0.00,VWS V14.01,2013-04-05 13:45:00,
2013-04-05 09:50:00,43.0,23.6,29.56,WSW,258,0.0,0.0,46,0.00,,,0.00,VWS V14.01,2013-04-05 13:50:00,
2013-04-05 09:55:00,43.2,23.3,29.53,WSW,258,0.0,0.0,45,0.00,,,0.00,VWS V14.01,2013-04-05 13:55:00,
2013-04-05 10:00:00,43.3,22.9,29.53,SW,230,2.7,2.7,44,0.00,,,0.00,VWS V14.01,2013-04-05 14:00:00,
2013-04-05 10:05:00,43.5,23.1,29.53,SW,224,2.7,2.7,44,0.00,,,0.00,VWS V14.01,2013-04-05 14:05:00,
2013-04-05 10:10:00,43.7,22.7,29.53,WNW,285,4.0,4.0,43,0.00,,,0.00,VWS V14.01,2013-04-05 14:10:00,
2013-04-05 10:15:00,43.7,22.7,29.53,WNW,287,0.0,0.0,43,0.00,,,0.00,VWS V14.01,2013-04-05 14:15:00,
2013-04-05 10:20:00,44.1,22.5,29.53,West,262,3.1,3.1,42,0.00,,,0.00,VWS V14.01,2013-04-05 14:20:00,
2013-04-05 10:25:00,45.0,22.7,29.53,WSW,245,5.4,5.4,41,0.00,,,0.00,VWS V14.01,2013-04-05 14:25:00,
2013-04-05 10:30:00,45.0,22.7,29.53,WSW,248,3.6,3.6,41,0.00,,,0.00,VWS V14.01,2013-04-05 14:30:00,
2013-04-05 10:35:00,45.3,23.0,29.53,WSW,254,0.0,0.0,41,0.00,,,0.00,VWS V14.01,2013-04-05 14:35:00,
2013-04-05 10:40:00,45.3,22.4,29.53,WNW,287,0.0,0.0,40,0.00,,,0.00,VWS V14.01,2013-04-05 14:40:00,
2013-04-05 10:45:00,45.3,22.4,29.53,WSW,237,3.1,3.1,40,0.00,,,0.00,VWS V14.01,2013-04-05 14:45:00,
2013-04-05 10:50:00,45.3,22.4,29.53,West,259,2.7,2.7,40,0.00,,,0.00,VWS V14.01,2013-04-05 14:50:00,
2013-04-05 10:55:00,45.5,22.0,29.53,WSW,256,2.7,2.7,39,0.00,,,0.00,VWS V14.01,2013-04-05 14:55:00,
2013-04-05 11:00:00,45.9,22.3,29.53,WSW,250,5.8,5.8,39,0.00,,,0.00,VWS V14.01,2013-04-05 15:00:00,
2013-04-05 11:05:00,45.7,22.2,29.53,SW,232,0.0,0.0,39,0.00,,,0.00,VWS V14.01,2013-04-05 15:05:00,
2013-04-05 11:10:00,45.7,22.2,29.50,WNW,291,0.0,0.0,39,0.00,,,0.00,VWS V14.01,2013-04-05 15:10:00,
2013-04-05 11:15:00,45.7,22.2,29.50,West,271,0.0,0.0,39,0.00,,,0.00,VWS V14.01,2013-04-05 15:15:00,
2013-04-05 11:20:00,46.2,22.6,29.50,West,260,3.1,3.1,39,0.00,,,0.00,VWS V14.01,2013-04-05 15:20:00,
2013-04-05 11:25:00,46.2,22.6,29.50,WSW,242,0.0,0.0,39,0.00,,,0.00,VWS V14.01,2013-04-05 15:25:00,
2013-04-05 11:30:00,46.6,23.0,29.50,SW,228,0.0,0.0,39,0.00,,,0.00,VWS V14.01,2013-04-05 15:30:00,
2013-04-05 11:35:00,46.6,23.0,29.50,SW,234,2.2,2.2,39,0.00,,,0.00,VWS V14.01,2013-04-05 15:35:00,
2013-04-05 11:40:00,46.9,22.7,29.50,SSW,204,3.6,3.6,38,0.00,,,0.00,VWS V14.01,2013-04-05 15:40:00,
2013-04-05 11:45:00,46.9,22.7,29.50,SSW,204,3.6,3.6,38,0.00,,,0.00,VWS V14.01,2013-04-05 15:45:00,
2013-04-05 11:50:00,46.9,22.7,29.50,WSW,257,3.6,3.6,38,0.00,,,0.00,VWS V14.01,2013-04-05 15:50:00,
2013-04-05 11:55:00,47.7,23.3,29.47,WSW,251,0.0,0.0,38,0.00,,,0.00,VWS V14.01,2013-04-05 15:55:00,
2013-04-05 12:00:00,47.8,23.5,29.47,WSW,245,0.0,0.0,38,0.00,,,0.00,VWS V14.01,2013-04-05 16:00:00,
2013-04-05 12:05:00,47.8,23.5,29.47,WSW,238,2.7,2.7,38,0.00,,,0.00,VWS V14.01,2013-04-05 16:05:00,
2013-04-05 12:10:00,48.4,24.0,29.47,WNW,291,0.0,0.0,38,0.00,,,0.00,VWS V14.01,2013-04-05 16:10:00,
2013-04-05 12:15:00,48.7,24.3,29.47,SW,226,3.1,3.1,38,0.00,,,0.00,VWS V14.01,2013-04-05 16:15:00,
2013-04-05 12:20:00,49.5,24.9,29.47,WNW,294,3.1,3.1,38,0.00,,,0.00,VWS V14.01,2013-04-05 16:20:00,
2013-04-05 12:25:00,49.5,24.9,29.47,WNW,283,3.1,4.9,38,0.00,,,0.00,VWS V14.01,2013-04-05 16:25:00,
2013-04-05 12:30:00,49.5,24.9,29.47,SW,215,5.8,5.8,38,0.00,,,0.00,VWS V14.01,2013-04-05 16:30:00,
2013-04-05 12:36:00,50.4,25.1,29.47,NW,307,3.1,3.1,37,0.00,,,0.00,VWS V14.01,2013-04-05 16:36:00,
2013-04-05 12:41:00,50.5,25.2,29.47,WNW,296,3.1,3.1,37,0.00,,,0.00,VWS V14.01,2013-04-05 16:41:00,
2013-04-05 12:46:00,51.1,25.7,29.44,SW,215,4.0,4.0,37,0.00,,,0.00,VWS V14.01,2013-04-05 16:46:00,
2013-04-05 12:51:00,51.1,25.7,29.44,West,270,2.7,2.7,37,0.00,,,0.00,VWS V14.01,2013-04-05 16:51:00,
2013-04-05 12:56:00,51.1,25.7,29.44,NW,323,2.7,3.1,37,0.00,,,0.00,VWS V14.01,2013-04-05 16:56:00,
2013-04-05 13:01:00,53.2,25.6,29.44,WNW,297,3.1,3.1,34,0.00,,,0.00,VWS V14.01,2013-04-05 17:01:00,
2013-04-05 13:06:00,54.1,25.7,29.44,SW,218,4.0,4.0,33,0.00,,,0.00,VWS V14.01,2013-04-05 17:06:00,
2013-04-05 13:11:00,54.7,24.7,29.41,WNW,285,3.1,3.1,31,0.00,,,0.00,VWS V14.01,2013-04-05 17:11:00,
2013-04-05 13:16:00,55.0,24.2,29.41,West,277,3.1,3.1,30,0.00,,,0.00,VWS V14.01,2013-04-05 17:16:00,
2013-04-05 13:22:00,55.0,24.2,29.41,SW,234,3.6,3.6,30,0.00,,,0.00,VWS V14.01,2013-04-05 17:22:00,
2013-04-05 13:27:00,55.6,24.7,29.41,SW,223,0.0,0.0,30,0.00,,,0.00,VWS V14.01,2013-04-05 17:27:00,
2013-04-05 13:32:00,55.6,24.7,29.41,WNW,296,0.0,0.0,30,0.00,,,0.00,VWS V14.01,2013-04-05 17:32:00,
2013-04-05 13:37:00,55.9,23.3,29.41,NW,325,3.1,3.1,28,0.00,,,0.00,VWS V14.01,2013-04-05 17:37:00,
2013-04-05 13:42:00,55.9,23.3,29.41,WNW,297,6.3,6.3,28,0.00,,,0.00,VWS V14.01,2013-04-05 17:42:00,
2013-04-05 13:47:00,56.5,23.8,29.41,WNW,299,0.0,0.0,28,0.00,,,0.00,VWS V14.01,2013-04-05 17:47:00,
2013-04-05 13:52:00,56.8,24.1,29.41,WNW,299,2.2,2.2,28,0.00,,,0.00,VWS V14.01,2013-04-05 17:52:00,
2013-04-05 13:57:00,57.0,24.3,29.41,WNW,299,2.2,2.2,28,0.00,,,0.00,VWS V14.01,2013-04-05 17:57:00,
2013-04-05 14:02:00,56.8,23.2,29.38,South,185,0.0,0.0,27,0.00,,,0.00,VWS V14.01,2013-04-05 18:02:00,
2013-04-05 14:07:00,57.2,23.5,29.38,WNW,282,0.0,0.0,27,0.00,,,0.00,VWS V14.01,2013-04-05 18:07:00,
2013-04-05 14:12:00,57.6,23.0,29.38,WNW,301,4.0,4.0,26,0.00,,,0.00,VWS V14.01,2013-04-05 18:12:00,
2013-04-05 14:17:00,57.9,23.3,29.38,SW,221,0.0,0.0,26,0.00,,,0.00,VWS V14.01,2013-04-05 18:17:00,
2013-04-05 14:22:00,57.9,23.3,29.38,SW,221,0.0,0.0,26,0.00,,,0.00,VWS V14.01,2013-04-05 18:22:00,
2013-04-05 14:27:00,57.9,23.3,29.38,SSE,152,3.1,3.1,26,0.00,,,0.00,VWS V14.01,2013-04-05 18:27:00,
2013-04-05 14:32:00,57.9,23.3,29.35,East,82,0.0,0.0,26,0.00,,,0.00,VWS V14.01,2013-04-05 18:32:00,
2013-04-05 14:37:00,58.8,24.0,29.35,NNW,335,2.2,2.2,26,0.00,,,0.00,VWS V14.01,2013-04-05 18:37:00,
2013-04-05 14:42:00,58.8,24.0,29.35,WNW,292,0.0,0.0,26,0.00,,,0.00,VWS V14.01,2013-04-05 18:42:00,
2013-04-05 14:47:00,59.4,23.6,29.35,SSE,165,0.0,0.0,25,0.00,,,0.00,VWS V14.01,2013-04-05 18:47:00,
2013-04-05 14:52:00,59.9,24.0,29.35,SSE,157,0.0,0.0,25,0.00,,,0.00,VWS V14.01,2013-04-05 18:52:00,
2013-04-05 14:57:00,60.3,24.3,29.32,North,5,0.0,0.0,25,0.00,,,0.00,VWS V14.01,2013-04-05 18:57:00,
2013-04-05 15:02:00,60.6,24.6,29.32,NNE,33,0.0,0.0,25,0.00,,,0.00,VWS V14.01,2013-04-05 19:02:00,
2013-04-05 15:07:00,60.6,24.6,29.32,NNE,33,2.2,2.2,25,0.00,,,0.00,VWS V14.01,2013-04-05 19:07:00,
2013-04-05 15:12:00,60.6,24.6,29.32,WSW,237,3.1,3.1,25,0.00,,,0.00,VWS V14.01,2013-04-05 19:12:00,
2013-04-05 15:17:00,60.6,24.6,29.32,WSW,248,0.0,0.0,25,0.00,,,0.00,VWS V14.01,2013-04-05 19:17:00,
2013-04-05 15:22:00,60.4,24.5,29.32,WNW,283,3.6,3.6,25,0.00,,,0.00,VWS V14.01,2013-04-05 19:22:00,
2013-04-05 15:27:00,61.0,24.0,29.32,West,275,0.0,0.0,24,0.00,,,0.00,VWS V14.01,2013-04-05 19:27:00,
2013-04-05 15:32:00,61.9,24.7,29.32,ESE,109,0.0,0.0,24,0.00,,,0.00,VWS V14.01,2013-04-05 19:32:00,
2013-04-05 15:37:00,62.2,25.0,29.32,SE,139,2.2,2.2,24,0.00,,,0.00,VWS V14.01,2013-04-05 19:37:00,
2013-04-05 15:42:00,62.2,25.0,29.32,South,182,2.7,2.7,24,0.00,,,0.00,VWS V14.01,2013-04-05 19:42:00,
2013-04-05 15:47:00,62.6,24.3,29.32,North,0,0.0,0.0,23,0.00,,,0.00,VWS V14.01,2013-04-05 19:47:00,
2013-04-05 15:52:00,63.1,25.8,29.32,NW,306,0.0,0.0,24,0.00,,,0.00,VWS V14.01,2013-04-05 19:52:00,
2013-04-05 15:57:00,63.1,25.8,29.32,NW,306,0.0,0.0,24,0.00,,,0.00,VWS V14.01,2013-04-05 19:57:00,
2013-04-05 16:02:00,63.0,25.6,29.32,ENE,69,0.0,0.0,24,0.00,,,0.00,VWS V14.01,2013-04-05 20:02:00,
2013-04-05 16:07:00,63.0,25.6,29.32,NNW,331,2.7,2.7,24,0.00,,,0.00,VWS V14.01,2013-04-05 20:07:00,
2013-04-05 16:12:00,62.6,25.3,29.32,SSW,213,7.2,7.2,24,0.00,,,0.00,VWS V14.01,2013-04-05 20:12:00,
2013-04-05 16:17:00,62.6,25.3,29.32,West,266,0.0,0.0,24,0.00,,,0.00,VWS V14.01,2013-04-05 20:17:00,
2013-04-05 16:22:00,62.6,25.3,29.32,West,266,0.0,0.0,24,0.00,,,0.00,VWS V14.01,2013-04-05 20:22:00,
2013-04-05 16:27:00,62.2,25.0,29.32,ESE,111,3.1,3.1,24,0.00,,,0.00,VWS V14.01,2013-04-05 20:27:00,
2013-04-05 16:32:00,62.2,25.0,29.29,WNW,288,4.0,4.0,24,0.00,,,0.00,VWS V14.01,2013-04-05 20:32:00,
2013-04-05 16:37:00,62.2,25.0,29.29,West,270,5.8,5.8,24,0.00,,,0.00,VWS V14.01,2013-04-05 20:37:00,
2013-04-05 16:42:00,62.2,25.0,29.32,NW,324,0.0,0.0,24,0.00,,,0.00,VWS V14.01,2013-04-05 20:42:00,
2013-04-05 16:47:00,61.7,24.6,29.32,WNW,299,3.6,3.6,24,0.00,,,0.00,VWS V14.01,2013-04-05 20:47:00,
2013-04-05 16:52:00,61.3,24.3,29.32,ENE,78,0.0,0.0,24,0.00,,,0.00,VWS V14.01,2013-04-05 20:52:00,
2013-04-05 16:57:00,61.3,24.3,29.32,North,353,0.0,2.7,24,0.00,,,0.00,VWS V14.01,2013-04-05 20:57:00,
2013-04-05 17:02:00,61.3,24.3,29.32,North,353,0.0,0.0,24,0.00,,,0.00,VWS V14.01,2013-04-05 21:02:00,
2013-04-05 17:07:00,61.3,24.3,29.32,NW,322,0.0,0.0,24,0.00,,,0.00,VWS V14.01,2013-04-05 21:07:00,
2013-04-05 17:12:00,60.8,23.8,29.32,NW,321,3.1,3.1,24,0.00,,,0.00,VWS V14.01,2013-04-05 21:12:00,
2013-04-05 17:17:00,60.8,23.8,29.32,NW,321,3.1,3.1,24,0.00,,,0.00,VWS V14.01,2013-04-05 21:17:00,
2013-04-05 17:22:00,59.7,22.9,29.32,West,281,5.8,5.8,24,0.00,,,0.00,VWS V14.01,2013-04-05 21:22:00,
2013-04-05 17:27:00,59.7,22.9,29.32,NW,315,5.4,5.4,24,0.00,,,0.00,VWS V14.01,2013-04-05 21:27:00,
2013-04-05 17:32:00,59.4,22.6,29.32,NW,306,0.0,0.0,24,0.00,,,0.00,VWS V14.01,2013-04-05 21:32:00,
2013-04-05 17:37:00,59.2,22.4,29.32,West,278,0.0,0.0,24,0.00,,,0.00,VWS V14.01,2013-04-05 21:37:00,
2013-04-05 17:42:00,58.8,22.1,29.32,NW,305,6.3,6.3,24,0.00,,,0.00,VWS V14.01,2013-04-05 21:42:00,
2013-04-05 17:47:00,58.6,22.0,29.32,WNW,285,3.6,3.6,24,0.00,,,0.00,VWS V14.01,2013-04-05 21:47:00,
2013-04-05 17:52:00,58.6,22.0,29.32,West,275,2.2,2.2,24,0.00,,,0.00,VWS V14.01,2013-04-05 21:52:00,
2013-04-05 17:57:00,58.5,21.8,29.32,WNW,287,2.2,2.2,24,0.00,,,0.00,VWS V14.01,2013-04-05 21:57:00,
2013-04-05 18:02:00,58.6,22.0,29.35,NW,306,0.0,0.0,24,0.00,,,0.00,VWS V14.01,2013-04-05 22:02:00,
2013-04-05 18:07:00,58.6,22.0,29.35,NW,306,0.0,0.0,24,0.00,,,0.00,VWS V14.01,2013-04-05 22:07:00,
2013-04-05 18:12:00,57.9,22.3,29.35,NW,306,0.0,0.0,25,0.00,,,0.00,VWS V14.01,2013-04-05 22:12:00,
2013-04-05 18:17:00,57.9,22.3,29.35,NW,316,0.0,0.0,25,0.00,,,0.00,VWS V14.01,2013-04-05 22:17:00,
2013-04-05 18:22:00,57.9,22.3,29.35,NW,316,0.0,0.0,25,0.00,,,0.00,VWS V14.01,2013-04-05 22:22:00,
2013-04-05 18:27:00,56.7,21.3,29.35,West,271,4.0,4.0,25,0.00,,,0.00,VWS V14.01,2013-04-05 22:27:00,
2013-04-05 18:32:00,56.5,21.1,29.35,NNW,344,3.6,3.6,25,0.00,,,0.00,VWS V14.01,2013-04-05 22:32:00,
2013-04-05 18:37:00,55.9,20.6,29.35,NNW,344,3.6,3.6,25,0.00,,,0.00,VWS V14.01,2013-04-05 22:37:00,
2013-04-05 18:42:00,55.6,20.3,29.38,WNW,294,0.0,3.1,25,0.00,,,0.00,VWS V14.01,2013-04-05 22:42:00,
2013-04-05 18:47:00,55.4,20.2,29.38,NNW,330,0.0,0.0,25,0.00,,,0.00,VWS V14.01,2013-04-05 22:47:00,
2013-04-05 18:52:00,54.9,20.6,29.38,NW,314,0.0,0.0,26,0.00,,,0.00,VWS V14.01,2013-04-05 22:52:00,
2013-04-05 18:57:00,54.7,20.5,29.38,NW,315,0.0,0.0,26,0.00,,,0.00,VWS V14.01,2013-04-05 22:57:00,
2013-04-05 19:02:00,54.1,20.0,29.38,WSW,252,0.0,0.0,26,0.00,,,0.00,VWS V14.01,2013-04-05 23:02:00,
2013-04-05 19:07:00,54.0,19.9,29.38,West,278,3.6,3.6,26,0.00,,,0.00,VWS V14.01,2013-04-05 23:07:00,
2013-04-05 19:12:00,53.6,19.6,29.38,WNW,290,0.0,0.0,26,0.00,,,0.00,VWS V14.01,2013-04-05 23:12:00,
2013-04-05 19:17:00,53.1,19.1,29.38,West,278,0.0,0.0,26,0.00,,,0.00,VWS V14.01,2013-04-05 23:17:00,
2013-04-05 19:22:00,52.9,19.0,29.38,WNW,288,0.0,0.0,26,0.00,,,0.00,VWS V14.01,2013-04-05 23:22:00,
2013-04-05 19:27:00,52.5,18.6,29.41,WNW,288,0.0,0.0,26,0.00,,,0.00,VWS V14.01,2013-04-05 23:27:00,
2013-04-05 19:32:00,52.5,18.6,29.41,WNW,292,0.0,0.0,26,0.00,,,0.00,VWS V14.01,2013-04-05 23:32:00,
2013-04-05 19:37:00,52.2,18.3,29.41,WNW,297,0.0,0.0,26,0.00,,,0.00,VWS V14.01,2013-04-05 23:37:00,
2013-04-05 19:42:00,52.0,18.2,29.41,West,273,0.0,0.0,26,0.00,,,0.00,VWS V14.01,2013-04-05 23:42:00,
2013-04-05 19:47:00,51.6,18.8,29.41,NNW,333,0.0,0.0,27,0.00,,,0.00,VWS V14.01,2013-04-05 23:47:00,
2013-04-05 19:52:00,51.3,18.4,29.41,NNW,333,0.0,0.0,27,0.00,,,0.00,VWS V14.01,2013-04-05 23:52:00,
2013-04-05 19:57:00,51.1,18.3,29.41,NW,311,0.0,0.0,27,0.00,,,0.00,VWS V14.01,2013-04-05 23:57:00,
2013-04-05 20:02:00,50.7,18.0,29.41,North,353,0.0,2.7,27,0.00,,,0.00,VWS V14.01,2013-04-06 00:02:00,
2013-04-05 20:07:00,50.7,18.0,29.41,WNW,287,0.0,0.0,27,0.00,,,0.00,VWS V14.01,2013-04-06 00:07:00,
2013-04-05 20:12:00,50.7,18.0,29.41,WNW,298,0.0,0.0,27,0.00,,,0.00,VWS V14.01,2013-04-06 00:12:00,
2013-04-05 20:17:00,50.5,17.8,29.41,West,279,0.0,0.0,27,0.00,,,0.00,VWS V14.01,2013-04-06 00:17:00,
2013-04-05 20:22:00,50.5,17.8,29.41,West,281,0.0,0.0,27,0.00,,,0.00,VWS V14.01,2013-04-06 00:22:00,
2013-04-05 20:27:00,50.5,17.8,29.44,WNW,282,0.0,0.0,27,0.00,,,0.00,VWS V14.01,2013-04-06 00:27:00,
2013-04-05 20:32:00,50.5,17.8,29.44,NNW,329,0.0,0.0,27,0.00,,,0.00,VWS V14.01,2013-04-06 00:32:00,
2013-04-05 20:37:00,50.0,17.4,29.44,NW,310,0.0,2.2,27,0.00,,,0.00,VWS V14.01,2013-04-06 00:37:00,
2013-04-05 20:42:00,50.0,17.4,29.44,WNW,294,2.2,2.2,27,0.00,,,0.00,VWS V14.01,2013-04-06 00:42:00,
2013-04-05 20:47:00,49.6,17.9,29.44,WNW,294,2.2,2.2,28,0.00,,,0.00,VWS V14.01,2013-04-06 00:47:00,
2013-04-05 20:52:00,49.6,17.9,29.44,WNW,285,0.0,0.0,28,0.00,,,0.00,VWS V14.01,2013-04-06 00:52:00,
2013-04-05 20:57:00,49.6,17.9,29.44,West,266,4.0,4.0,28,0.00,,,0.00,VWS V14.01,2013-04-06 00:57:00,
2013-04-05 21:02:00,49.3,17.6,29.47,West,279,4.0,4.0,28,0.00,,,0.00,VWS V14.01,2013-04-06 01:02:00,
2013-04-05 21:07:00,49.3,17.6,29.47,West,271,0.0,0.0,28,0.00,,,0.00,VWS V14.01,2013-04-06 01:07:00,
2013-04-05 21:12:00,48.7,17.1,29.47,WSW,249,0.0,0.0,28,0.00,,,0.00,VWS V14.01,2013-04-06 01:12:00,
2013-04-05 21:17:00,48.6,17.0,29.47,NNW,330,6.3,6.3,28,0.00,,,0.00,VWS V14.01,2013-04-06 01:17:00,
2013-04-05 21:22:00,48.2,17.5,29.47,North,0,0.0,0.0,29,0.00,,,0.00,VWS V14.01,2013-04-06 01:22:00,
2013-04-05 21:27:00,47.7,17.0,29.47,WSW,245,0.0,0.0,29,0.00,,,0.00,VWS V14.01,2013-04-06 01:27:00,
2013-04-05 21:32:00,47.5,16.8,29.47,NW,319,0.0,0.0,29,0.00,,,0.00,VWS V14.01,2013-04-06 01:32:00,
2013-04-05 21:37:00,47.1,16.5,29.50,NNW,330,0.0,0.0,29,0.00,,,0.00,VWS V14.01,2013-04-06 01:37:00,
2013-04-05 21:42:00,46.9,16.4,29.50,NW,306,0.0,0.0,29,0.00,,,0.00,VWS V14.01,2013-04-06 01:42:00,
2013-04-05 21:47:00,46.6,16.0,29.50,South,176,0.0,0.0,29,0.00,,,0.00,VWS V14.01,2013-04-06 01:47:00,
2013-04-05 21:52:00,46.0,16.4,29.50,NNE,15,2.2,2.2,30,0.00,,,0.00,VWS V14.01,2013-04-06 01:52:00,
2013-04-05 21:57:00,46.0,16.4,29.50,NNE,21,0.0,0.0,30,0.00,,,0.00,VWS V14.01,2013-04-06 01:57:00,
2013-04-05 22:02:00,45.7,16.8,29.50,NNE,28,0.0,0.0,31,0.00,,,0.00,VWS V14.01,2013-04-06 02:02:00,
2013-04-05 22:07:00,45.5,16.6,29.50,SW,214,0.0,0.0,31,0.00,,,0.00,VWS V14.01,2013-04-06 02:07:00,
2013-04-05 22:12:00,45.1,17.1,29.50,East,79,2.2,3.6,32,0.00,,,0.00,VWS V14.01,2013-04-06 02:12:00,
2013-04-05 22:17:00,45.1,17.1,29.50,SW,236,0.0,0.0,32,0.00,,,0.00,VWS V14.01,2013-04-06 02:17:00,
2013-04-05 22:22:00,44.2,19.0,29.50,NW,317,0.0,0.0,36,0.00,,,0.00,VWS V14.01,2013-04-06 02:22:00,
2013-04-05 22:27:00,43.7,19.1,29.50,SSW,198,0.0,0.0,37,0.00,,,0.00,VWS V14.01,2013-04-06 02:27:00,
2013-04-05 22:32:00,43.5,19.6,29.53,West,259,3.1,3.1,38,0.00,,,0.00,VWS V14.01,2013-04-06 02:32:00,
2013-04-05 22:37:00,43.2,19.3,29.53,SSW,213,0.0,3.1,38,0.00,,,0.00,VWS V14.01,2013-04-06 02:37:00,
2013-04-05 22:42:00,42.8,19.0,29.53,SSW,196,0.0,0.0,38,0.00,,,0.00,VWS V14.01,2013-04-06 02:42:00,
2013-04-05 22:48:00,42.4,19.2,29.53,SSW,196,0.0,0.0,39,0.00,,,0.00,VWS V14.01,2013-04-06 02:48:00,
2013-04-05 22:53:00,42.3,19.1,29.53,WNW,299,0.0,0.0,39,0.00,,,0.00,VWS V14.01,2013-04-06 02:53:00,
2013-04-05 22:58:00,41.9,19.4,29.53,NW,325,0.0,0.0,40,0.00,,,0.00,VWS V14.01,2013-04-06 02:58:00,
2013-04-05 23:03:00,41.9,19.4,29.53,NW,306,0.0,0.0,40,0.00,,,0.00,VWS V14.01,2013-04-06 03:03:00,
2013-04-05 23:08:00,41.7,19.8,29.53,NW,311,0.0,0.0,41,0.00,,,0.00,VWS V14.01,2013-04-06 03:08:00,
2013-04-05 23:13:00,41.5,19.6,29.53,NNW,336,4.9,4.9,41,0.00,,,0.00,VWS V14.01,2013-04-06 03:13:00,
2013-04-05 23:18:00,41.4,19.5,29.53,NW,311,5.4,5.4,41,0.00,,,0.00,VWS V14.01,2013-04-06 03:18:00,
2013-04-05 23:23:00,41.2,19.3,29.53,South,177,0.0,0.0,41,0.00,,,0.00,VWS V14.01,2013-04-06 03:23:00,
2013-04-05 23:28:00,41.0,19.1,29.53,West,264,3.6,3.6,41,0.00,,,0.00,VWS V14.01,2013-04-06 03:28:00,
2013-04-05 23:33:00,40.8,19.5,29.53,West,265,0.0,2.2,42,0.00,,,0.00,VWS V14.01,2013-04-06 03:33:00,
2013-04-05 23:38:00,40.5,19.2,29.53,West,273,0.0,0.0,42,0.00,,,0.00,VWS V14.01,2013-04-06 03:38:00,
2013-04-05 23:43:00,40.3,19.0,29.53,North,2,2.2,2.2,42,0.00,,,0.00,VWS V14.01,2013-04-06 03:43:00,
2013-04-05 23:48:00,40.3,19.0,29.53,WNW,297,0.0,0.0,42,0.00,,,0.00,VWS V14.01,2013-04-06 03:48:00,
2013-04-05 23:53:00,40.1,18.9,29.56,SSE,168,0.0,2.7,42,0.00,,,0.00,VWS V14.01,2013-04-06 03:53:00,
2013-04-05 23:58:00,39.9,18.7,29.56,NW,317,0.0,2.7,42,0.00,,,0.00,VWS V14.01,2013-04-06 03:58:00,